createdAt,value
2018-05-31T00:01:43.956Z,26.1
2018-05-31T00:11:43.251Z,26.1
2018-05-31T00:21:42.375Z,26.1
2018-05-31T00:31:41.671Z,26.1
2018-05-31T00:41:40.811Z,26.1
2018-05-31T00:51:40.050Z,26.1
2018-05-31T01:01:39.242Z,26.1
2018-05-31T01:11:38.601Z,26.1
2018-05-31T01:21:37.733Z,26.1
2018-05-31T01:31:37.210Z,26.1
2018-05-31T01:41:36.440Z,26.1
2018-05-31T01:51:35.514Z,26.1
2018-05-31T02:01:34.568Z,26.1
2018-05-31T02:11:34.077Z,26.1
2018-05-31T02:21:32.992Z,26.1
2018-05-31T02:31:32.230Z,26.1
2018-05-31T02:41:31.749Z,26.1
2018-05-31T02:51:30.959Z,26.1
2018-05-31T03:01:29.916Z,26.1
2018-05-31T03:11:29.075Z,26
2018-05-31T03:21:28.383Z,26
2018-05-31T03:31:28.155Z,25.9
2018-05-31T03:41:26.811Z,26
2018-05-31T03:51:25.992Z,25.9
2018-05-31T04:01:25.502Z,25.9
2018-05-31T04:11:24.403Z,25.9
2018-05-31T04:21:23.671Z,25.9
2018-05-31T04:31:22.899Z,25.9
2018-05-31T04:41:22.555Z,25.9
2018-05-31T04:51:21.286Z,25.9
2018-05-31T05:01:20.796Z,25.9
2018-05-31T05:11:19.778Z,25.9
2018-05-31T05:21:19.022Z,25.9
2018-05-31T05:31:18.180Z,25.9
2018-05-31T05:41:17.746Z,25.9
2018-05-31T05:51:17.484Z,25.9
2018-05-31T06:01:16.114Z,25.9
2018-05-31T06:11:15.343Z,25.9
2018-05-31T06:21:14.640Z,25.9
2018-05-31T06:31:14.740Z,25.9
2018-05-31T06:41:12.823Z,25.9
2018-05-31T06:51:12.056Z,25.9
2018-05-31T07:01:11.125Z,25.9
2018-05-31T07:11:10.424Z,25.9
2018-05-31T07:21:10.146Z,25.9
2018-05-31T07:31:09.039Z,25.9
2018-05-31T07:41:08.155Z,25.9
2018-05-31T07:51:07.212Z,25.9
2018-05-31T08:01:06.757Z,25.9
2018-05-31T08:11:05.830Z,25.9
2018-05-31T08:21:04.903Z,25.9
2018-05-31T08:31:04.175Z,25.9
2018-05-31T08:41:03.994Z,25.9
2018-05-31T08:51:02.553Z,25.9
2018-05-31T09:01:01.745Z,25.9
2018-05-31T09:11:00.974Z,25.9
2018-05-31T09:21:00.502Z,25.9
2018-05-31T09:30:59.753Z,25.9
2018-05-31T09:40:58.620Z,25.9
2018-05-31T09:50:58.286Z,25.9
2018-05-31T10:00:57.126Z,25.9
2018-05-31T10:10:56.318Z,25.9
2018-05-31T10:20:55.520Z,26
2018-05-31T10:30:54.712Z,26
2018-05-31T10:40:53.996Z,26
2018-05-31T10:50:53.156Z,26
2018-05-31T11:00:52.383Z,26
2018-05-31T11:10:51.661Z,26.1
2018-05-31T11:20:50.864Z,26
2018-05-31T11:30:50.066Z,26.1
2018-05-31T11:40:49.296Z,26.1
2018-05-31T11:50:48.539Z,26.1
2018-05-31T12:00:48.289Z,26.1
2018-05-31T12:10:46.995Z,26.1
2018-05-31T12:20:46.417Z,26.1
2018-05-31T12:30:45.395Z,26.2
2018-05-31T12:40:45.145Z,26.2
2018-05-31T12:50:44.053Z,26.2
2018-05-31T13:00:43.309Z,26.3
2018-05-31T13:10:42.847Z,26.3
2018-05-31T13:20:41.446Z,26.3
2018-05-31T13:30:40.731Z,26.3
2018-05-31T13:40:39.941Z,26.3
2018-05-31T13:50:39.495Z,26.3
2018-05-31T14:00:38.645Z,26.3
2018-05-31T14:10:37.590Z,26.3
2018-05-31T14:20:37.071Z,26.3
2018-05-31T14:30:36.024Z,26.4
2018-05-31T14:40:35.472Z,26.4
2018-05-31T14:50:34.409Z,26.4
2018-05-31T15:00:33.981Z,26.4
2018-05-31T15:10:32.919Z,26.4
2018-05-31T15:20:32.674Z,26.4
2018-05-31T15:30:31.414Z,26.5
2018-05-31T15:40:30.524Z,26.5
2018-05-31T15:50:29.828Z,26.6
2018-05-31T16:00:28.987Z,26.6
2018-05-31T16:10:28.512Z,26.6
2018-05-31T16:20:27.705Z,26.8
2018-05-31T16:30:26.941Z,26.7
2018-05-31T16:40:26.138Z,26.4
2018-05-31T16:50:25.150Z,26.1
2018-05-31T17:00:24.356Z,26
2018-05-31T17:10:23.535Z,25.9
2018-05-31T17:20:23.092Z,25.8
2018-05-31T17:30:22.084Z,25.7
2018-05-31T17:40:21.223Z,25.6
2018-05-31T17:50:20.510Z,25.6
2018-05-31T18:00:19.618Z,25.6
2018-05-31T18:10:19.733Z,25.4
2018-05-31T18:20:18.391Z,25.1
2018-05-31T18:30:17.304Z,25.2
2018-05-31T18:40:16.887Z,25.3
2018-05-31T18:50:16.073Z,25.5
2018-05-31T19:00:14.963Z,25.6
2018-05-31T19:10:14.269Z,25.8
2018-05-31T19:40:11.842Z,26.1
2018-05-31T19:50:11.169Z,26.1
2018-05-31T20:00:10.694Z,26
2018-05-31T20:10:09.503Z,26.1
2018-05-31T20:20:08.757Z,26.2
2018-05-31T20:30:08.284Z,26.2
2018-05-31T20:40:07.188Z,26.3
2018-05-31T20:50:06.555Z,26.3
2018-05-31T21:00:05.619Z,26.4
2018-05-31T21:10:04.886Z,26.4
2018-05-31T21:20:04.441Z,26.4
2018-05-31T21:30:03.606Z,26.4
2018-05-31T21:40:02.573Z,26.4
2018-05-31T21:50:01.722Z,26.4
2018-05-31T22:00:00.967Z,26.4
2018-05-31T22:10:00.483Z,26.4
2018-05-31T22:19:59.415Z,26.4
2018-05-31T22:29:58.617Z,26.5
2018-05-31T22:39:57.816Z,26.5
2018-05-31T22:49:57.094Z,26.5
2018-05-31T22:59:56.369Z,26.4
2018-05-31T23:09:55.589Z,26.4
2018-05-31T23:19:55.044Z,26.5
2018-05-31T23:29:53.926Z,26.5
2018-05-31T23:39:53.180Z,26.5
2018-05-31T23:49:52.377Z,26.5
2018-05-31T23:59:51.596Z,26.5
